• Join FlightAware (Why Join?)
  • Login
  • US Flag 
12:16PM EDT


 

Airport Tracker/Info


-or-


 

Live Flight TrackerFlight Track Log ✈ N6ZQ ✈ 24-Jul-2013 ✈ KHYS - KHAF

Flight Track Log - Related Links

Times and Time Zones

All times are in EDT time to prevent confusion due to time zone crossing. See the N6ZQ flight status page for this flight to view local times or setup timezone preferences in your user account.

Time Position Orientation Groundspeed Altitude Reporting Facility
EDT Latitude Longitude Course Direction KTS MPH feet Rate Location/Type
08:59AM 38.8486 -99.3453 254° West 182 209 4,000  Level Kansas City Center
09:00AM 38.8344 -99.4097 254° West 169 194 5,100 840 Climbing Kansas City Center
09:01AM 38.8200 -99.4667 252° West 172 198 5,800 720 Climbing Kansas City Center
09:02AM 38.8081 -99.5272 256° West 182 209 6,600 900 Climbing Kansas City Center
09:03AM 38.7925 -99.5981 254° West 182 209 7,700 840 Climbing Kansas City Center
09:04AM 38.7789 -99.6669 256° West 180 207 8,400 600 Climbing Kansas City Center
09:05AM 38.7678 -99.7272 257° West 183 211 9,000 480 Climbing Kansas City Center
09:06AM 38.7567 -99.7906 257° West 186 214 9,500 600 Climbing Kansas City Center
09:07AM 38.7425 -99.8636 256° West 189 217 10,300 660 Climbing Kansas City Center
09:08AM 38.7322 -99.9231 258° West 183 211 10,900 540 Climbing Kansas City Center
09:09AM 38.7208 -99.9919 258° West 179 206 11,500 480 Climbing Kansas City Center
09:10AM 38.7083 -100.0531 255° West 182 209 11,900 240 Climbing Kansas City Center
09:11AM 38.6972 -100.1294 259° West 193 222 12,100  Climbing Kansas City Center
09:12AM 38.6869 -100.1864 257° West 212 244 12,000  Descending Denver Center
09:13AM 38.6756 -100.2522 258° West 202 232 12,100  Climbing Denver Center
09:14AM 38.6633 -100.3322 259° West 205 236 12,100 -120 Level Denver Center
09:15AM 38.6508 -100.3875 254° West 204 235 11,900 -60 Descending Denver Center
09:16AM 38.6361 -100.4750 258° West 199 229 12,000  Climbing Denver Center
09:17AM 38.6197 -100.5367 251° West 195 224 11,900 -60 Descending Denver Center
09:18AM 38.6072 -100.5997 256° West 192 221 11,900  Level Denver Center
09:19AM 38.5933 -100.6753 257° West 194 223 11,900  Level Denver Center
09:21AM 38.5814 -100.7403 257° West 195 224 11,900  Level Denver Center
09:22AM 38.5675 -100.8164 257° West 196 226 11,900  Level Denver Center
09:23AM 38.5542 -100.8831 256° West 200 230 11,900  Level Denver Center
09:24AM 38.5422 -100.9489 257° West 200 230 11,900  Level Denver Center
09:25AM 38.5275 -101.0242 256° West 197 227 11,900  Level Denver Center
09:26AM 38.5158 -101.0889 257° West 196 226 11,900  Level Denver Center
09:27AM 38.5039 -101.1533 257° West 195 224 11,900  Level Denver Center
09:28AM 38.4892 -101.2247 255° West 189 217 11,900  Level Denver Center
09:29AM 38.4775 -101.2867 256° West 188 216 11,900  Level Denver Center
09:30AM 38.4631 -101.3603 256° West 190 219 11,900  Level Denver Center
09:31AM 38.4514 -101.4189 256° West 185 213 11,900  Level Denver Center
09:32AM 38.4406 -101.4800 257° West 183 211 11,900  Level Denver Center
09:33AM 38.4336 -101.5539 263° West 187 215 11,900  Level Denver Center
09:34AM 38.4308 -101.6178 267° West 188 216 11,900  Level Denver Center
09:35AM 38.4294 -101.6708 268° West 187 215 11,900  Level Denver Center
09:36AM 38.4267 -101.7542 268° West 184 212 11,900  Level Denver Center
09:37AM 38.4253 -101.8181 268° West 187 215 11,900  Level Denver Center
09:38AM 38.4214 -101.8922 266° West 188 216 11,900  Level Denver Center
09:39AM 38.4175 -101.9539 265° West 185 213 11,900  Level Denver Center
09:40AM 38.4153 -102.0292 268° West 190 219 11,900  Level Denver Center
09:41AM 38.4128 -102.0925 267° West 188 216 11,900  Level Denver Center
09:42AM 38.4108 -102.1564 268° West 189 217 11,900  Level Denver Center
09:43AM 38.4083 -102.2311 268° West 189 217 11,900  Level Denver Center
09:44AM 38.4042 -102.2950 265° West 189 217 11,900  Level Denver Center
09:45AM 38.4014 -102.3708 267° West 190 219 11,900 60 Level Denver Center
09:46AM 38.3972 -102.4400 266° West 192 221 12,100 60 Climbing Denver Center
09:47AM 38.3944 -102.5047 267° West 192 221 12,100  Level Denver Center
09:48AM 38.3922 -102.5692 268° West 191 220 12,100  Level Denver Center
09:49AM 38.3886 -102.6453 267° West 192 221 12,100  Level Denver Center
09:50AM 38.3853 -102.7106 266° West 193 222 12,100  Level Denver Center
09:51AM 38.3833 -102.7647 267° West 192 221 12,100  Level Denver Center
09:52AM 38.3811 -102.8494 268° West 188 216 12,100  Level Denver Center
09:53AM 38.3792 -102.9375 268° West 193 222 12,100  Level Denver Center
09:55AM 38.3731 -103.0039 263° West 195 224 12,100  Level Denver Center
09:56AM 38.3692 -103.0917 267° West 194 223 12,100 -60 Level Denver Center
09:57AM 38.3689 -103.1481 270° West 198 228 12,000  Descending Denver Center
09:58AM 38.3628 -103.2361 265° West 196 226 12,100  Climbing Denver Center
09:59AM 38.3603 -103.3025 267° West 195 224 12,100  Level Denver Center
10:00AM 38.3550 -103.3789 265° West 194 223 12,100  Level Denver Center
10:01AM 38.3511 -103.4450 266° West 196 226 12,100  Level Denver Center
10:02AM 38.3492 -103.5014 267° West 198 228 12,100  Level Denver Center
10:03AM 38.3433 -103.5911 265° West 199 229 12,100  Level Denver Center
10:04AM 38.3394 -103.6569 266° West 198 228 12,100  Level Denver Center
10:05AM 38.3361 -103.7122 266° West 197 227 12,100  Level Denver Center
10:06AM 38.3319 -103.8014 267° West 198 228 12,100 180 Level Denver Center
10:07AM 38.3264 -103.8781 265° West 196 226 12,500 240 Climbing Denver Center
10:08AM 38.3233 -103.9375 266° West 184 212 12,700 240 Climbing Denver Center
10:09AM 38.3203 -103.9964 266° West 179 206 13,000 240 Climbing Denver Center
10:10AM 38.3158 -104.0631 265° West 170 196 13,300 240 Climbing Denver Center
10:11AM 38.3122 -104.1214 266° West 171 197 13,600 420 Climbing Denver Center
10:12AM 38.3086 -104.1825 266° West 162 186 14,200 420 Climbing Denver Center
10:13AM 38.3061 -104.2333 266° West 156 180 14,500 300 Climbing Denver Center
10:14AM 38.3022 -104.2925 265° West 151 174 14,900 300 Climbing Denver Center
10:15AM 38.3011 -104.3433 268° West 150 173 15,200 240 Climbing Denver Center
10:16AM 38.3050 -104.4019 275° West 150 173 15,400 240 Climbing Denver Center
10:17AM 38.3008 -104.4539 264° West 153 176 15,700 240 Climbing Denver Center
10:18AM 38.3017 -104.5142 271° West 154 177 16,000 240 Climbing Denver Center
10:19AM 38.3047 -104.5658 274° West 153 176 16,200 60 Climbing Denver Center
10:20AM 38.3067 -104.6203 273° West 157 181 16,200  Level Denver Center
10:21AM 38.3125 -104.6892 276° West 170 196 16,200  Level Denver Center
10:22AM 38.3164 -104.7500 275° West 176 203 16,200  Level Denver Center
10:23AM 38.3211 -104.8236 275° West 184 212 16,200  Level Denver Center
10:24AM 38.3253 -104.8858 275° West 184 212 16,200  Level Denver Center
10:26AM 38.3308 -104.9567 276° West 181 208 16,200  Level Denver Center
10:27AM 38.3347 -105.0192 275° West 183 211 16,200  Level Denver Center
10:28AM 38.3389 -105.0872 274° West 176 203 16,200  Level Denver Center
10:29AM 38.3433 -105.1503 275° West 184 212 16,200  Level Denver Center
10:30AM 38.3447 -105.2197 271° West 179 206 16,200  Level Denver Center
10:31AM 38.3483 -105.2811 274° West 182 209 16,200 -60 Level Denver Center
10:32AM 38.3575 -105.3525 279° West 183 211 16,100 -60 Descending Denver Center
10:33AM 38.3617 -105.4158 275° West 186 214 16,100  Level Denver Center
10:34AM 38.3644 -105.4992 272° West 185 213 16,100  Level Denver Center
10:35AM 38.3717 -105.5614 278° West 186 214 16,100 -60 Level Denver Center
10:36AM 38.3728 -105.6336 271° West 183 211 16,000 -60 Descending Denver Center
10:37AM 38.3781 -105.6978 276° West 187 215 16,000  Level Denver Center
10:38AM 38.3853 -105.7700 277° West 186 214 16,000  Level Denver Center
10:39AM 38.3886 -105.8314 274° West 183 211 16,100  Climbing Denver Center
10:40AM 38.3917 -105.9042 273° West 183 211 16,100  Level Denver Center
10:42AM 38.3961 -105.9918 274° West  Level FlightAware Approximate
10:49AM 38.4167 -106.4583 270° West  Level FlightAware Approximate
10:50AM 38.4167 -106.5250 270° West  Level FlightAware Approximate
10:50AM 38.4297 -106.5461 276° West 183 211 16,100  Level Denver Center
10:51AM 38.4167 -106.5917 270° West  Level FlightAware Approximate
10:51AM 38.4333 -106.6114 274° West 184 212 16,000  Level Denver Center
10:52AM 38.4174 -106.6584 276° West  Level FlightAware Approximate
10:52AM 38.4347 -106.6894 271° West 184 212 16,000  Level Denver Center
10:53AM 38.4233 -106.7247 276° West  Level FlightAware Approximate
10:54AM 38.4291 -106.7910 276° West  Level FlightAware Approximate
10:54AM 38.4375 -106.7547 273° West 183 211 16,000  Level Denver Center
10:55AM 38.4349 -106.8574 276° West  Level FlightAware Approximate
10:56AM 38.4406 -106.9237 276° West  Level FlightAware Approximate
10:56AM 38.4419 -106.8853 273° West 165 190 15,800  Level Denver Center
10:57AM 38.4450 -106.9667 273° West 188 216 15,700  Descending Denver Center
10:58AM 38.4511 -107.0408 276° West 188 216 15,800 60 Climbing Denver Center
10:59AM 38.4550 -107.0856 276° West 188 216 15,900  Climbing Denver Center
11:00AM 38.4994 -107.1972 297° West 197 227 15,900 -60 Level Denver Center
11:01AM 38.5328 -107.2489 310° West 200 230 15,800  Descending Denver Center
11:02AM 38.5719 -107.3108 309° West 199 229 15,900  Climbing Denver Center
11:03AM 38.5989 -107.3550 308° West 198 228 15,900  Level Denver Center
11:04AM 38.6436 -107.4264 309° West 201 231 15,900  Level Denver Center
11:05AM 38.6892 -107.4692 324° Northwest 207 238 15,900  Level Denver Center
11:06AM 38.7292 -107.5131 319° Northwest 203 234 16,000  Climbing Denver Center
11:07AM 38.7631 -107.5889 300° West 218 251 15,900 -60 Descending Denver Center
11:09AM 38.7939 -107.6517 302° West 218 251 15,900  Level Denver Center
11:10AM 38.8156 -107.7150 294° West 203 234 15,900  Level Denver Center
11:11AM 38.8375 -107.8097 287° West 193 222 15,900  Level Denver Center
11:12AM 38.8389 -107.8772 272° West 197 227 16,000  Climbing Denver Center
11:13AM 38.8367 -107.9572 268° West 201 231 15,900 -60 Descending Denver Center
11:14AM 38.8414 -108.0247 275° West 199 229 15,900  Level Denver Center
11:15AM 38.8428 -108.0914 272° West 197 227 15,900  Level Denver Center
11:16AM 38.8350 -108.1656 262° West 189 217 16,000  Climbing Denver Center
11:17AM 38.8300 -108.2269 264° West 183 211 16,000  Level Denver Center
11:18AM 38.8219 -108.2978 262° West 179 206 16,000  Level Denver Center
11:19AM 38.8097 -108.3575 255° West 180 207 16,000  Level Denver Center
11:20AM 38.7933 -108.4231 252° West 177 204 16,000  Level Denver Center
11:21AM 38.7869 -108.4797 262° West 170 196 16,000 -300 Level Denver Center
11:22AM 38.7842 -108.5539 267° West 186 214 15,500 -360 Descending Denver Center
11:23AM 38.7742 -108.6247 260° West 196 226 15,300 -300 Descending Denver Center
11:24AM 38.7583 -108.6889 252° West 192 221 15,000 -180 Descending Denver Center
11:25AM 38.7461 -108.7617 258° West 193 222 15,000  Level Denver Center
11:26AM 38.7342 -108.8264 257° West 188 216 15,000  Level Denver Center
11:27AM 38.7236 -108.8936 259° West 191 220 15,100  Climbing Denver Center
11:28AM 38.7094 -108.9628 255° West 189 217 15,000 -120 Descending Denver Center
11:29AM 38.6981 -109.0272 257° West 184 212 14,900  Descending Denver Center
11:30AM 38.6883 -109.0972 260° West 186 214 15,000  Climbing Denver Center
11:31AM 38.6806 -109.1617 261° West 182 209 15,000  Level Denver Center
11:33AM 38.6683 -109.2206 255° West 180 207 15,000  Level Denver Center
11:34AM 38.6608 -109.2903 262° West 178 205 15,000  Level Denver Center
11:35AM 38.6503 -109.3503 257° West 180 207 15,000  Level Denver Center
11:36AM 38.6394 -109.4206 259° West 180 207 15,000  Level Denver Center
11:37AM 38.6289 -109.4803 257° West 180 207 15,000  Level Denver Center
11:38AM 38.6175 -109.5522 259° West 182 209 15,000  Level Denver Center
11:39AM 38.6069 -109.6117 257° West 181 208 15,000  Level Denver Center
11:40AM 38.5981 -109.6631 258° West 183 211 15,000  Level Denver Center
11:41AM 38.5844 -109.7458 258° West 185 213 15,000  Level Denver Center
11:42AM 38.5739 -109.8067 258° West 184 212 15,000  Level Denver Center
11:43AM 38.5611 -109.8772 257° West 184 212 15,000  Level Denver Center
11:44AM 38.5506 -109.9394 258° West 184 212 15,000  Level Denver Center
11:45AM 38.5381 -110.0119 258° West 186 214 15,000  Level Denver Center
11:46AM 38.5278 -110.0739 258° West 187 215 15,000  Level Denver Center
11:47AM 38.5136 -110.1561 258° West 186 214 15,000  Level Denver Center
11:48AM 38.5022 -110.2153 256° West 183 211 15,000  Level Denver Center
11:49AM 38.4906 -110.2867 258° West 182 209 15,000  Level Denver Center
11:50AM 38.4789 -110.3478 256° West 184 212 15,000  Level Denver Center
11:51AM 38.4706 -110.4083 260° West 183 211 15,000  Level Salt Lake Center
11:52AM 38.4714 -110.4725 271° West 182 209 15,000  Level Salt Lake Center
11:53AM 38.4717 -110.5486 270° West 186 214 15,000  Level Salt Lake Center
11:54AM 38.4706 -110.6117 269° West 187 215 15,000  Level Salt Lake Center
11:55AM 38.4700 -110.6864 269° West 187 215 15,000  Level Salt Lake Center
11:56AM 38.4689 -110.7492 269° West 186 214 15,000  Level Salt Lake Center
11:57AM 38.4681 -110.8217 269° West 184 212 15,100  Climbing Salt Lake Center
11:58AM 38.4667 -110.8825 268° West 181 208 15,000 -60 Descending Salt Lake Center
11:59AM 38.4661 -110.9467 269° West 181 208 15,000  Level Salt Lake Center
12:01PM 38.4650 -111.0092 269° West 178 205 15,000  Level Salt Lake Center
12:02PM 38.4628 -111.0844 268° West 177 204 15,000  Level Salt Lake Center
12:03PM 38.4622 -111.1458 269° West 176 203 15,000  Level Salt Lake Center
12:04PM 38.4608 -111.2075 268° West 175 201 15,000  Level Salt Lake Center
12:05PM 38.4581 -111.2719 267° West 178 205 15,000  Level Salt Lake Center
12:06PM 38.4572 -111.3356 269° West 179 206 15,000  Level Salt Lake Center
12:07PM 38.4564 -111.4000 269° West 180 207 15,000  Level Salt Lake Center
12:08PM 38.4553 -111.4756 269° West 179 206 15,000  Level Salt Lake Center
12:09PM 38.4533 -111.5386 268° West 179 206 15,000  Level Salt Lake Center
12:10PM 38.4522 -111.6028 269° West 180 207 15,000  Level Salt Lake Center
12:11PM 38.4508 -111.6669 268° West 181 208 15,000  Level Salt Lake Center
12:12PM 38.4494 -111.7311 268° West 181 208 15,000  Level Salt Lake Center
12:13PM 38.4486 -111.7961 269° West 183 211 15,000  Level Salt Lake Center
12:14PM 38.4472 -111.8711 269° West 179 206 15,000  Level Salt Lake Center
12:15PM 38.4458 -111.9322 268° West 175 201 15,000  Level Salt Lake Center
12:16PM 38.4442 -111.9950 268° West 176 203 15,000  Level Salt Lake Center
12:17PM 38.4428 -112.0561 268° West 174 200 15,000  Level Salt Lake Center
12:18PM 38.4403 -112.1189 267° West 176 203 15,000  Level Salt Lake Center
12:19PM 38.4383 -112.1931 268° West 176 203 15,000  Level Salt Lake Center
12:20PM 38.4364 -112.2558 268° West 177 204 15,000  Level Salt Lake Center
12:21PM 38.4347 -112.3189 268° West 179 206 15,000  Level Salt Lake Center
12:22PM 38.4325 -112.3819 267° West 178 205 15,000  Level Salt Lake Center
12:23PM 38.4308 -112.4472 268° West 181 208 15,000  Level Salt Lake Center
12:24PM 38.4289 -112.5114 268° West 182 209 15,000  Level Salt Lake Center
12:25PM 38.4264 -112.5903 268° West 184 212 15,000  Level Salt Lake Center
12:26PM 38.4244 -112.6550 268° West 184 212 15,000  Level Salt Lake Center
12:27PM 38.4208 -112.7206 266° West 185 213 15,000  Level Salt Lake Center
12:28PM 38.4197 -112.7864 269° West 185 213 15,000  Level Salt Lake Center
12:29PM 38.4183 -112.8539 269° West 188 216 15,000  Level Salt Lake Center
12:31PM 38.4156 -112.9203 267° West 189 217 15,000  Level Salt Lake Center
12:32PM 38.4125 -113.0019 267° West 191 220 15,000  Level Salt Lake Center
12:33PM 38.4100 -113.0697 267° West 192 221 15,000  Level Salt Lake Center
12:34PM 38.4086 -113.1372 269° West 192 221 15,000  Level Salt Lake Center
12:35PM 38.4056 -113.2047 267° West 191 220 15,000  Level Salt Lake Center
12:36PM 38.4033 -113.2733 268° West 192 221 15,000  Level Salt Lake Center
12:37PM 38.4003 -113.3556 267° West 194 223 15,000  Level Salt Lake Center
12:38PM 38.3972 -113.4244 267° West 194 223 15,000  Level Salt Lake Center
12:39PM 38.3944 -113.4931 267° West 194 223 15,000  Level Salt Lake Center
12:40PM 38.3917 -113.5622 267° West 195 224 15,000  Level Salt Lake Center
12:41PM 38.3900 -113.6319 268° West 196 226 15,000  Level Salt Lake Center
12:42PM 38.3875 -113.7006 267° West 196 226 15,000  Level Salt Lake Center
12:43PM 38.3833 -113.7814 266° West 193 222 15,000  Level Salt Lake Center
12:44PM 38.3806 -113.8494 267° West 193 222 15,000  Level Salt Lake Center
12:45PM 38.3778 -113.9156 267° West 190 219 15,000  Level Salt Lake Center
12:46PM 38.3750 -113.9831 267° West 190 219 15,000  Level Salt Lake Center
12:47PM 38.3722 -114.0517 267° West 192 221 15,000  Level Salt Lake Center
12:48PM 38.3683 -114.1197 266° West 193 222 15,000  Level Salt Lake Center
12:49PM 38.3658 -114.2022 268° West 194 223 15,000  Level Salt Lake Center
12:50PM 38.3619 -114.2694 266° West 193 222 15,000  Level Salt Lake Center
12:51PM 38.3578 -114.3372 266° West 193 222 15,000  Level Salt Lake Center
12:52PM 38.3544 -114.4053 266° West 193 222 15,000  Level Salt Lake Center
12:53PM 38.3514 -114.4728 267° West 192 221 15,000  Level Salt Lake Center
12:54PM 38.3483 -114.5389 267° West 191 220 15,000  Level Salt Lake Center
12:55PM 38.3456 -114.6186 267° West 189 217 15,000  Level Salt Lake Center
12:56PM 38.3419 -114.6867 266° West 190 219 15,000  Level Salt Lake Center
12:57PM 38.3383 -114.7553 266° West 193 222 15,000  Level Salt Lake Center
12:58PM 38.3358 -114.8225 267° West 192 221 15,000  Level Salt Lake Center
12:59PM 38.3328 -114.8892 267° West 191 220 15,000  Level Salt Lake Center
01:00PM 38.3292 -114.9567 266° West 191 220 15,000  Level Salt Lake Center
01:02PM 38.3250 -115.0367 266° West 189 217 15,100  Climbing Salt Lake Center
01:03PM 38.3206 -115.1044 265° West 192 221 15,100  Level Salt Lake Center
01:04PM 38.3181 -115.1708 267° West 189 217 15,100  Level Salt Lake Center
01:05PM 38.3142 -115.2369 266° West 188 216 15,100  Level Salt Lake Center
01:06PM 38.3097 -115.3050 265° West 193 222 15,100  Level Salt Lake Center
01:07PM 38.3058 -115.3817 266° West 189 217 15,100  Level Salt Lake Center
01:08PM 38.3011 -115.4475 265° West 188 216 15,100  Level Salt Lake Center
01:09PM 38.2986 -115.5139 267° West 188 216 15,100  Level Salt Lake Center
01:10PM 38.2942 -115.5800 265° West 188 216 15,100  Level Salt Lake Center
01:11PM 38.2906 -115.6458 266° West 187 215 15,100  Level Salt Lake Center
01:12PM 38.2864 -115.7250 266° West 187 215 15,100  Level Salt Lake Center
01:13PM 38.2822 -115.7908 265° West 187 215 15,100  Level Salt Lake Center
01:14PM 38.2775 -115.8567 265° West 187 215 15,100  Level Salt Lake Center
01:15PM 38.2750 -115.9206 267° West 182 209 15,100  Level Salt Lake Center
01:16PM 38.2708 -115.9864 265° West 185 213 15,100  Level Salt Lake Center
01:17PM 38.2661 -116.0522 265° West 187 215 15,100  Level Salt Lake Center
01:18PM 38.2622 -116.1183 266° West 187 215 15,100  Level Salt Lake Center
01:19PM 38.2581 -116.1947 266° West 182 209 15,100  Level Salt Lake Center
01:20PM 38.2531 -116.2608 265° West 186 214 15,100  Level Salt Lake Center
01:21PM 38.2489 -116.3269 265° West 187 215 15,100  Level Salt Lake Center
01:22PM 38.2450 -116.3933 266° West 188 216 15,100  Level Salt Lake Center
01:23PM 38.2408 -116.4592 265° West 188 216 15,100  Level Salt Lake Center
01:24PM 38.2367 -116.5256 265° West 188 216 15,100 120 Level Salt Lake Center
01:25PM 38.2314 -116.5997 265° West 179 206 15,400 240 Climbing Salt Lake Center
01:26PM 38.2281 -116.6586 266° West 171 197 15,600 240 Climbing Salt Lake Center
01:27PM 38.2244 -116.7172 266° West 167 192 15,900 180 Climbing Salt Lake Center
01:29PM 38.2194 -116.7889 265° West 169 194 16,100 60 Climbing Oakland Center
01:30PM 38.2150 -116.8525 265° West 177 204 16,100  Level Oakland Center
01:31PM 38.2106 -116.9172 265° West 183 211 16,100 -60 Level Oakland Center
01:32PM 38.2061 -116.9828 265° West 186 214 16,000  Descending Oakland Center
01:33PM 38.2017 -117.0481 265° West 186 214 16,100  Climbing Oakland Center
01:34PM 38.1961 -117.1283 265° West 189 217 16,100 -60 Level Oakland Center
01:35PM 38.1917 -117.1947 265° West 190 219 16,000  Descending Oakland Center
01:36PM 38.1864 -117.2594 264° West 192 221 16,100  Climbing Oakland Center
01:37PM 38.1825 -117.3247 266° West 190 219 16,100  Level Oakland Center
01:38PM 38.1778 -117.3844 264° West 187 215 16,100  Level Oakland Center
01:39PM 38.1728 -117.4567 265° West 188 216 16,100  Level Oakland Center
01:40PM 38.1667 -117.5358 264° West 189 217 16,100  Level Oakland Center
01:41PM 38.1619 -117.6008 265° West 187 215 16,100  Level Oakland Center
01:42PM 38.1564 -117.6667 264° West 186 214 16,100  Level Oakland Center
01:43PM 38.1519 -117.7333 265° West 189 217 16,100  Level Oakland Center
01:44PM 38.1469 -117.7997 265° West 189 217 16,100  Level Oakland Center
01:45PM 38.1419 -117.8631 264° West 183 211 16,100  Level Oakland Center
01:46PM 38.1369 -117.9289 265° West 185 213 16,100  Level Oakland Center
01:47PM 38.1317 -117.9947 264° West 187 215 16,100  Level Oakland Center
01:48PM 38.1253 -118.0739 264° West 188 216 16,100  Level Oakland Center
01:49PM 38.1203 -118.1425 265° West 188 216 16,100  Level Oakland Center
01:50PM 38.1147 -118.2067 264° West 188 216 16,100  Level Oakland Center
01:51PM 38.1089 -118.2742 264° West 193 222 16,100  Level Oakland Center
01:52PM 38.1044 -118.3400 265° West 187 215 16,100  Level Oakland Center
01:53PM 38.0986 -118.4058 264° West 188 216 16,100  Level Oakland Center
01:54PM 38.0944 -118.4739 266° West 193 222 16,100 -60 Level Oakland Center
01:55PM 38.0861 -118.5525 262° West 188 216 16,000 -60 Descending Oakland Center
01:56PM 38.0825 -118.6181 266° West 186 214 16,000  Level Oakland Center
01:57PM 38.0761 -118.6836 263° West 187 215 16,100  Climbing Oakland Center
01:58PM 38.0714 -118.7481 265° West 186 214 16,100  Level Oakland Center
01:59PM 38.0656 -118.8119 263° West 183 211 16,100  Level Oakland Center
02:00PM 38.0592 -118.8778 263° West 186 214 16,100  Level Oakland Center
02:01PM 38.0539 -118.9433 264° West 187 215 16,100  Level Oakland Center
02:02PM 38.0492 -119.0058 265° West 182 209 16,100  Level Oakland Center
02:03PM 38.0422 -119.0808 263° West 180 207 16,200 -120 Climbing Oakland Center
02:05PM 38.0364 -119.1436 263° West 179 206 15,900 -180 Descending Oakland Center
02:06PM 38.0322 -119.2078 265° West 180 207 15,900  Level Oakland Center
02:07PM 38.0256 -119.2761 263° West 181 208 15,900  Level Oakland Center
02:08PM 38.0200 -119.3417 264° West 186 214 15,900  Level Oakland Center
02:09PM 38.0139 -119.4067 263° West 186 214 15,900  Level Oakland Center
02:10PM 38.0083 -119.4722 264° West 187 215 15,900  Level Oakland Center
02:11PM 38.0039 -119.5372 265° West 187 215 15,900  Level Oakland Center
02:12PM 37.9978 -119.6033 263° West 189 217 15,900  Level Oakland Center
02:13PM 37.9914 -119.6692 263° West 189 217 15,900  Level Oakland Center
02:14PM 37.9853 -119.7347 263° West 188 216 15,900  Level Oakland Center
02:15PM 37.9794 -119.7994 263° West 186 214 15,900  Level Oakland Center
02:16PM 37.9706 -119.8775 262° West 187 215 15,900  Level Oakland Center
02:17PM 37.9642 -119.9425 263° West 187 215 15,900  Level Oakland Center
02:18PM 37.9589 -120.0067 264° West 185 213 15,900  Level Oakland Center
02:19PM 37.9528 -120.0722 263° West 187 215 15,900  Level Oakland Center
02:20PM 37.9464 -120.1367 263° West 186 214 15,900  Level Oakland Center
02:21PM 37.9383 -120.2031 261° West 189 217 16,000  Climbing Oakland Center
02:22PM 37.9333 -120.2656 264° West 184 212 16,000  Level Oakland Center
02:23PM 37.9269 -120.3283 263° West 181 208 16,000 -240 Level Oakland Center
02:24PM 37.9197 -120.4089 264° West 190 219 15,600 -540 Descending Oakland Center
02:25PM 37.9106 -120.4839 261° West 206 237 15,000 -540 Descending Oakland Center
02:26PM 37.9025 -120.5586 262° West 214 246 14,600 -480 Descending Oakland Center
02:27PM 37.8939 -120.6350 262° West 217 250 14,100 -540 Descending Oakland Center
02:28PM 37.8853 -120.7117 262° West 219 252 13,600 -540 Descending Oakland Center
02:29PM 37.8769 -120.7889 262° West 220 253 13,100 -540 Descending Oakland Center
02:30PM 37.8681 -120.8642 262° West 219 252 12,600 -540 Descending Oakland Center
02:31PM 37.8597 -120.9403 262° West 218 251 12,100 -540 Descending Oakland Center
02:32PM 37.8653 -121.0142 275° West 222 255 11,600 -600 Descending Oakland Center
02:34PM 37.8667 -121.1333 271° West 220 253 10,700 -660 Descending Northern Cal TRACON
02:35PM 37.8333 -121.2000 238° Southwest 241 277 10,100 -660 Descending Northern Cal TRACON
02:36PM 37.8167 -121.2833 256° West 229 264 9,400 -660 Descending Northern Cal TRACON
02:37PM 37.7833 -121.3333 230° Southwest 220 253 8,900 -600 Descending Northern Cal TRACON
02:38PM 37.7500 -121.4167 243° Southwest 224 258 8,200 -360 Descending Northern Cal TRACON
02:39PM 37.7131 -121.5228 246° West 218 251 8,000 -120 Descending Oakland Center
02:41PM 37.6833 -121.6167 248° West 199 229 8,000  Level Northern Cal TRACON
02:42PM 37.6500 -121.6667 230° Southwest 200 230 8,000 -300 Level Northern Cal TRACON
02:43PM 37.6333 -121.7333 252° West 210 242 7,500 -600 Descending Northern Cal TRACON
02:44PM 37.6000 -121.8000 238° Southwest 221 254 6,900 -660 Descending Northern Cal TRACON
02:45PM 37.5833 -121.8833 256° West 220 253 6,200 -1,140 Descending Northern Cal TRACON
02:46PM 37.5833 -121.9667 270° West 231 266 4,700 -1,080 Descending Northern Cal TRACON
02:47PM 37.5500 -122.0333 238° Southwest 217 250 4,100 -300 Descending Northern Cal TRACON
02:48PM 37.5167 -122.0667 218° Southwest 190 219 4,100  Level Northern Cal TRACON
02:49PM 37.4667 -122.1000 208° Southwest 185 213 4,100  Level Northern Cal TRACON
02:50PM 37.4333 -122.1500 230° Southwest 187 215 4,100  Level Northern Cal TRACON
02:51PM 37.4500 -122.2167 287° West 187 215 4,100  Level Northern Cal TRACON
02:52PM 37.4500 -122.2833 270° West 186 214 4,100  Level Northern Cal TRACON
02:55PM 37.4716 -122.3958 289° West  Level FlightAware Approximate
03:02PM 37.5000 -122.5000 289° West  Level FlightAware Approximate
03:03PM 37.5134 -122.5012 289° West  Level Estimated